Etretat — FIDP — position and weather

sailwx.info

Track history (hours):
 
Tides and Currents Weather Stations Pressure Air Temp Water Temp Dewpoint Dewpoint Depression Visibility Wind Speed Wind Dir Waves Ship Positions

Etretat

Last reported at 2015-Jul-31 23:33 UTC. Time now 2015-Aug-01 01:29 UTC.
Position N 49°48' W 000°13'.

Length 187 m; draft 6 m.

Type: Ship. MMSI: 228022900.

Date/timePositionNaut miles runAvg speedWind from/ knotsBaromVisibWave heightAir tempDewpointWater temp
2015-Jul-31 23:33N 49°48' W 000°13'7 7.3
2015-Jul-31 22:33N 49°41' W 000°08'1 0.9
2015-Jul-31 21:33N 49°41' W 000°08'9 8.8
2015-Jul-31 20:34N 49°33' W 000°01'7 6.6
2015-Jul-31 19:33N 49°29' E 000°07'0 0.0
2015-Jul-31 18:33N 49°29' E 000°07'0 0.0
2015-Jul-31 17:33N 49°29' E 000°07'0 0.0
2015-Jul-31 16:33N 49°29' E 000°07'0 0.0
2015-Jul-31 15:33N 49°29' E 000°07'0 0.0
2015-Jul-31 14:33N 49°29' E 000°07'1110.8
2015-Jul-31 13:34N 49°37' W 000°05'5819.3
2015-Jul-31 10:33N 50°28' W 000°49'1918.9
2015-Jul-31 09:34N 50°44' W 001°04'5 4.9
2015-Jul-31 08:33N 50°49' W 001°06'0 0.0
2015-Jul-31 07:33N 50°49' W 001°06'0 0.0
2015-Jul-31 06:33N 50°49' W 001°06'0 0.0
2015-Jul-31 05:33N 50°49' W 001°06'8 8.1
2015-Jul-31 04:34N 50°42' W 000°58'3315.3
2015-Jul-31 02:26N 50°13' W 000°34'1514.4
2015-Jul-31 01:25N 50°00' W 000°23'1315.0
2015-Jul-31 00:33N 49°49' W 000°14'1010.3
2015-Jul-30 23:33N 49°39' W 000°11'1 0.6
2015-Jul-30 22:33N 49°39' W 000°10'3 2.5
2015-Jul-30 21:33N 49°39' W 000°07'1312.8
2015-Jul-30 20:33N 49°29' E 000°06'0 0.2
2015-Jul-30 19:33N 49°29' E 000°07'0 0.0
2015-Jul-30 18:33N 49°29' E 000°07'0 0.0
2015-Jul-30 17:33N 49°29' E 000°07'0 0.0
2015-Jul-30 16:33N 49°29' E 000°07'0 0.0
2015-Jul-30 15:33N 49°29' E 000°07'0 0.0
2015-Jul-30 14:33N 49°29' E 000°07'0 0.0
2015-Jul-30 13:33N 49°29' E 000°07'0 0.0
2015-Jul-30 12:33N 49°29' E 000°07'0 0.0
2015-Jul-30 11:33N 49°29' E 000°07'0 0.0
2015-Jul-30 10:33N 49°29' E 000°07'0 0.0
2015-Jul-30 09:33N 49°29' E 000°07'0 0.0
2015-Jul-30 08:33N 49°29' E 000°07'0 0.0
2015-Jul-30 07:33N 49°29' E 000°07'0 0.0
2015-Jul-30 06:33N 49°29' E 000°07'8 8.4
2015-Jul-30 05:33N 49°35' W 000°03'1616.0
2015-Jul-30 04:33N 49°49' W 000°15'4816.0
2015-Jul-30 01:33N 50°30' W 000°52'1514.9
2015-Jul-30 00:33N 50°44' W 001°03'5 5.3
2015-Jul-29 23:33N 50°49' W 001°06'0 0.0
2015-Jul-29 22:33N 50°49' W 001°06'0 0.0
2015-Jul-29 21:33N 50°49' W 001°06'5 4.7
2015-Jul-29 20:34N 50°44' W 001°04'6320.9
2015-Jul-29 17:33N 49°50' W 000°15'2121.0
2015-Jul-29 16:34N 49°31' E 000°00'5 4.8
2015-Jul-29 15:33N 49°29' E 000°07'0 0.0
2015-Jul-29 14:33N 49°29' E 000°07'0 0.0
2015-Jul-29 13:33N 49°29' E 000°07'0 0.0
2015-Jul-29 12:33N 49°29' E 000°07'0 0.0
2015-Jul-29 11:33N 49°29' E 000°07'0 0.0
2015-Jul-29 10:33N 49°29' E 000°07'0 0.0
2015-Jul-29 09:33N 49°29' E 000°07'0 0.0
2015-Jul-29 08:33N 49°29' E 000°07'0 0.0
2015-Jul-29 07:33N 49°29' E 000°07'0 0.0
2015-Jul-29 06:33N 49°29' E 000°07'0 0.5
2015-Jul-29 05:34N 49°29' E 000°06'1515.3
2015-Jul-29 04:33N 49°42' W 000°07'6415.9
2015-Jul-29 00:33N 50°38' W 000°54'1313.3
2015-Jul-28 23:34N 50°48' W 001°07'1 0.8
2015-Jul-28 22:34N 50°49' W 001°06'0 0.0
2015-Jul-28 21:34N 50°49' W 001°06'0 0.0
2015-Jul-28 20:33N 50°49' W 001°06'1212.4
2015-Jul-28 19:33N 50°38' W 000°55'6421.2
2015-Jul-28 16:33N 49°42' W 000°09'1616.5
2015-Jul-28 15:33N 49°29' E 000°07'0 0.0
2015-Jul-28 14:33N 49°29' E 000°07'0 0.0
2015-Jul-28 13:33N 49°29' E 000°07'0 0.0
2015-Jul-28 12:34N 49°29' E 000°07'0 0.0
2015-Jul-28 11:33N 49°29' E 000°07'0 0.0
2015-Jul-28 10:34N 49°29' E 000°07'0 0.0
2015-Jul-28 09:33N 49°29' E 000°07'0 0.0
2015-Jul-28 08:34N 49°29' E 000°07'0 0.0
2015-Jul-28 07:33N 49°29' E 000°07'0 0.0
2015-Jul-28 06:33N 49°29' E 000°07'1 0.8
2015-Jul-28 05:33N 49°29' E 000°05'1413.7
2015-Jul-28 04:33N 49°40' W 000°07'5612.9
2015-Jul-28 00:12N 50°29' W 000°49'812.6
2015-Jul-27 23:33N 50°37' W 000°54'1212.5
2015-Jul-27 22:34N 50°47' W 001°06'2 1.9
2015-Jul-27 21:34N 50°49' W 001°06'0 0.0
2015-Jul-27 20:34N 50°49' W 001°06'0 0.0
2015-Jul-27 19:34N 50°49' W 001°06'0 0.0
2015-Jul-27 18:34N 50°49' W 001°06'0 0.0
2015-Jul-27 17:34N 50°49' W 001°06'0 0.0
2015-Jul-27 16:34N 50°49' W 001°06'0 0.0
2015-Jul-27 15:34N 50°49' W 001°06'0 0.0
2015-Jul-27 14:34N 50°49' W 001°06'2 2.4
2015-Jul-27 13:33N 50°46' W 001°05'18219.7
2015-Jul-27 04:21N 48°45' W 004°35'1720.6
2015-Jul-27 03:32N 48°33' W 004°52'1717.7
2015-Jul-27 02:33N 48°19' W 005°08'2221.0
2015-Jul-27 01:32N 47°57' W 005°08'4221.4
2015-Jul-26 23:33N 47°16' W 004°53'2922.0
2015-Jul-26 22:15N 46°48' W 004°45'17912.2
2015-Jul-26 07:30N 43°53' W 003°52'2722.6
2015-Jul-26 06:19N 44°19' W 004°01'1722.5
2015-Jul-26 05:33N 44°35' W 004°06'20822.2
2015-Jul-25 20:10N 47°59' W 005°09'1320.8
2015-Jul-25 19:33N 48°12' W 005°09'1818.2
2015-Jul-25 18:33N 48°29' W 004°59'15621.0
2015-Jul-25 11:08N 50°13' W 002°01'3521.7
2015-Jul-25 09:31N 50°32' W 001°14'1616.6
2015-Jul-25 08:33N 50°46' W 001°05'2 2.3
2015-Jul-25 07:33N 50°49' W 001°06'0 0.0
2015-Jul-25 06:33N 50°49' W 001°06'0 0.0
2015-Jul-25 05:33N 50°49' W 001°06'0 0.0
2015-Jul-25 04:33N 50°49' W 001°06'4 4.4
2015-Jul-25 03:33N 50°44' W 001°05'1916.7
2015-Jul-25 02:26N 50°29' W 000°47'4013.8
2015-Jul-24 23:31N 49°54' W 000°18'1313.3
2015-Jul-24 22:34N 49°42' W 000°12'2 1.5
2015-Jul-24 21:34N 49°40' W 000°10'1111.0
2015-Jul-24 20:34N 49°32' E 000°00'5 4.9
2015-Jul-24 19:33N 49°29' E 000°07'0 0.0
2015-Jul-24 18:33N 49°29' E 000°07'0 0.0
2015-Jul-24 17:33N 49°29' E 000°07'0 0.0
2015-Jul-24 16:33N 49°29' E 000°07'0 0.0
2015-Jul-24 15:33N 49°29' E 000°07'0 0.0
2015-Jul-24 14:33N 49°29' E 000°07'10 9.8
2015-Jul-24 13:34N 49°36' W 000°04'2221.5
2015-Jul-24 12:33N 49°55' W 000°21'4321.7
2015-Jul-24 10:33N 50°34' W 000°51'1717.4
2015-Jul-24 09:33N 50°48' W 001°07'1 1.0
2015-Jul-24 08:33N 50°49' W 001°06'0 0.0
2015-Jul-24 07:33N 50°49' W 001°06'0 0.0
2015-Jul-24 06:33N 50°49' W 001°06'0 0.0
2015-Jul-24 05:33N 50°49' W 001°06'6 5.8
2015-Jul-24 04:33N 50°43' W 001°02'1514.9
2015-Jul-24 03:33N 50°31' W 000°49'3413.8
2015-Jul-24 01:08N 50°01' W 000°24'813.6
2015-Jul-24 00:33N 49°54' W 000°19'1111.0
2015-Jul-23 23:33N 49°44' W 000°12'0 0.4
2015-Jul-23 22:33N 49°44' W 000°12'1313.0
2015-Jul-23 21:33N 49°33' W 000°00'6 6.2
2015-Jul-23 20:33N 49°29' E 000°07'0 0.0
2015-Jul-23 19:33N 49°29' E 000°07'0 0.0
2015-Jul-23 18:33N 49°29' E 000°07'0 0.0
2015-Jul-23 17:33N 49°29' E 000°07'0 0.0
2015-Jul-23 16:33N 49°29' E 000°07'0 0.0
2015-Jul-23 15:33N 49°29' E 000°07'0 0.0
2015-Jul-23 14:33N 49°29' E 000°07'0 0.0
2015-Jul-23 13:33N 49°29' E 000°07'0 0.0
2015-Jul-23 12:33N 49°29' E 000°07'0 0.0
2015-Jul-23 11:33N 49°29' E 000°07'0 0.0
2015-Jul-23 10:33N 49°29' E 000°07'0 0.0
2015-Jul-23 09:33N 49°29' E 000°07'0 0.0
2015-Jul-23 08:33N 49°29' E 000°07'0 0.0
2015-Jul-23 07:33N 49°29' E 000°07'0 0.0
2015-Jul-23 06:33N 49°29' E 000°07'3 2.8
2015-Jul-23 05:34N 49°30' E 000°02'1414.4
2015-Jul-23 04:33N 49°42' W 000°09'5613.4
2015-Jul-23 00:22N 50°32' W 000°49'1215.0
2015-Jul-22 23:33N 50°42' W 000°59'8 7.7
2015-Jul-22 22:33N 50°49' W 001°06'0 0.0
2015-Jul-22 21:33N 50°49' W 001°06'0 0.0
2015-Jul-22 20:33N 50°49' W 001°06'1211.5
2015-Jul-22 19:34N 50°40' W 000°54'5122.3
2015-Jul-22 17:16N 49°54' W 000°18'1623.0
2015-Jul-22 16:34N 49°40' W 000°06'1413.5
2015-Jul-22 15:33N 49°29' E 000°07'0 0.0
2015-Jul-22 14:33N 49°29' E 000°07'0 0.0
2015-Jul-22 13:33N 49°29' E 000°07'0 0.0
2015-Jul-22 12:33N 49°29' E 000°07'0 0.0
2015-Jul-22 11:33N 49°29' E 000°07'0 0.0
2015-Jul-22 10:33N 49°29' E 000°07'0 0.0
2015-Jul-22 09:33N 49°29' E 000°07'0 0.0
2015-Jul-22 08:33N 49°29' E 000°07'0 0.0
2015-Jul-22 07:33N 49°29' E 000°07'0 0.0
2015-Jul-22 06:33N 49°29' E 000°07'2 1.9
2015-Jul-22 05:33N 49°29' E 000°04'1514.9
2015-Jul-22 04:33N 49°42' W 000°09'1312.8
2015-Jul-22 03:32N 49°53' W 000°18'4514.2
2015-Jul-22 00:23N 50°33' W 000°50'1113.8
2015-Jul-21 23:33N 50°43' W 000°60'  
Track history (hours):
 
Tides and Currents Weather Stations Pressure Air Temp Water Temp Dewpoint Dewpoint Depression Visibility Wind Speed Wind Dir Waves Ship Positions

Etretat

Last reported at 2015-Jul-31 23:33 UTC. Time now 2015-Aug-01 01:29 UTC.
Position N 49°48' W 000°13'.

Length 187 m; draft 6 m.

Type: Ship. MMSI: 228022900.

Date/timePositionNaut miles runAvg speedWind from/ knotsBaromVisibWave heightAir tempDewpointWater temp
2015-Jul-31 23:33N 49°48' W 000°13'7 7.3
2015-Jul-31 22:33N 49°41' W 000°08'1 0.9
2015-Jul-31 21:33N 49°41' W 000°08'9 8.8
2015-Jul-31 20:34N 49°33' W 000°01'7 6.6
2015-Jul-31 19:33N 49°29' E 000°07'0 0.0
2015-Jul-31 18:33N 49°29' E 000°07'0 0.0
2015-Jul-31 17:33N 49°29' E 000°07'0 0.0
2015-Jul-31 16:33N 49°29' E 000°07'0 0.0
2015-Jul-31 15:33N 49°29' E 000°07'0 0.0
2015-Jul-31 14:33N 49°29' E 000°07'1110.8
2015-Jul-31 13:34N 49°37' W 000°05'5819.3
2015-Jul-31 10:33N 50°28' W 000°49'1918.9
2015-Jul-31 09:34N 50°44' W 001°04'5 4.9
2015-Jul-31 08:33N 50°49' W 001°06'0 0.0
2015-Jul-31 07:33N 50°49' W 001°06'0 0.0
2015-Jul-31 06:33N 50°49' W 001°06'0 0.0
2015-Jul-31 05:33N 50°49' W 001°06'8 8.1
2015-Jul-31 04:34N 50°42' W 000°58'3315.3
2015-Jul-31 02:26N 50°13' W 000°34'1514.4
2015-Jul-31 01:25N 50°00' W 000°23'1315.0
2015-Jul-31 00:33N 49°49' W 000°14'1010.3
2015-Jul-30 23:33N 49°39' W 000°11'1 0.6
2015-Jul-30 22:33N 49°39' W 000°10'3 2.5
2015-Jul-30 21:33N 49°39' W 000°07'1312.8
2015-Jul-30 20:33N 49°29' E 000°06'0 0.2
2015-Jul-30 19:33N 49°29' E 000°07'0 0.0
2015-Jul-30 18:33N 49°29' E 000°07'0 0.0
2015-Jul-30 17:33N 49°29' E 000°07'0 0.0
2015-Jul-30 16:33N 49°29' E 000°07'0 0.0
2015-Jul-30 15:33N 49°29' E 000°07'0 0.0
2015-Jul-30 14:33N 49°29' E 000°07'0 0.0
2015-Jul-30 13:33N 49°29' E 000°07'0 0.0
2015-Jul-30 12:33N 49°29' E 000°07'0 0.0
2015-Jul-30 11:33N 49°29' E 000°07'0 0.0
2015-Jul-30 10:33N 49°29' E 000°07'0 0.0
2015-Jul-30 09:33N 49°29' E 000°07'0 0.0
2015-Jul-30 08:33N 49°29' E 000°07'0 0.0
2015-Jul-30 07:33N 49°29' E 000°07'0 0.0
2015-Jul-30 06:33N 49°29' E 000°07'8 8.4
2015-Jul-30 05:33N 49°35' W 000°03'1616.0
2015-Jul-30 04:33N 49°49' W 000°15'4816.0
2015-Jul-30 01:33N 50°30' W 000°52'1514.9
2015-Jul-30 00:33N 50°44' W 001°03'5 5.3
2015-Jul-29 23:33N 50°49' W 001°06'0 0.0
2015-Jul-29 22:33N 50°49' W 001°06'0 0.0
2015-Jul-29 21:33N 50°49' W 001°06'5 4.7
2015-Jul-29 20:34N 50°44' W 001°04'6320.9
2015-Jul-29 17:33N 49°50' W 000°15'2121.0
2015-Jul-29 16:34N 49°31' E 000°00'5 4.8
2015-Jul-29 15:33N 49°29' E 000°07'0 0.0
2015-Jul-29 14:33N 49°29' E 000°07'0 0.0
2015-Jul-29 13:33N 49°29' E 000°07'0 0.0
2015-Jul-29 12:33N 49°29' E 000°07'0 0.0
2015-Jul-29 11:33N 49°29' E 000°07'0 0.0
2015-Jul-29 10:33N 49°29' E 000°07'0 0.0
2015-Jul-29 09:33N 49°29' E 000°07'0 0.0
2015-Jul-29 08:33N 49°29' E 000°07'0 0.0
2015-Jul-29 07:33N 49°29' E 000°07'0 0.0
2015-Jul-29 06:33N 49°29' E 000°07'0 0.5
2015-Jul-29 05:34N 49°29' E 000°06'1515.3
2015-Jul-29 04:33N 49°42' W 000°07'6415.9
2015-Jul-29 00:33N 50°38' W 000°54'1313.3
2015-Jul-28 23:34N 50°48' W 001°07'1 0.8
2015-Jul-28 22:34N 50°49' W 001°06'0 0.0
2015-Jul-28 21:34N 50°49' W 001°06'0 0.0
2015-Jul-28 20:33N 50°49' W 001°06'1212.4
2015-Jul-28 19:33N 50°38' W 000°55'6421.2
2015-Jul-28 16:33N 49°42' W 000°09'1616.5
2015-Jul-28 15:33N 49°29' E 000°07'0 0.0
2015-Jul-28 14:33N 49°29' E 000°07'0 0.0
2015-Jul-28 13:33N 49°29' E 000°07'0 0.0
2015-Jul-28 12:34N 49°29' E 000°07'0 0.0
2015-Jul-28 11:33N 49°29' E 000°07'0 0.0
2015-Jul-28 10:34N 49°29' E 000°07'0 0.0
2015-Jul-28 09:33N 49°29' E 000°07'0 0.0
2015-Jul-28 08:34N 49°29' E 000°07'0 0.0
2015-Jul-28 07:33N 49°29' E 000°07'0 0.0
2015-Jul-28 06:33N 49°29' E 000°07'1 0.8
2015-Jul-28 05:33N 49°29' E 000°05'1413.7
2015-Jul-28 04:33N 49°40' W 000°07'5612.9
2015-Jul-28 00:12N 50°29' W 000°49'812.6
2015-Jul-27 23:33N 50°37' W 000°54'1212.5
2015-Jul-27 22:34N 50°47' W 001°06'2 1.9
2015-Jul-27 21:34N 50°49' W 001°06'0 0.0
2015-Jul-27 20:34N 50°49' W 001°06'0 0.0
2015-Jul-27 19:34N 50°49' W 001°06'0 0.0
2015-Jul-27 18:34N 50°49' W 001°06'0 0.0
2015-Jul-27 17:34N 50°49' W 001°06'0 0.0
2015-Jul-27 16:34N 50°49' W 001°06'0 0.0
2015-Jul-27 15:34N 50°49' W 001°06'0 0.0
2015-Jul-27 14:34N 50°49' W 001°06'2 2.4
2015-Jul-27 13:33N 50°46' W 001°05'18219.7
2015-Jul-27 04:21N 48°45' W 004°35'1720.6
2015-Jul-27 03:32N 48°33' W 004°52'1717.7
2015-Jul-27 02:33N 48°19' W 005°08'2221.0
2015-Jul-27 01:32N 47°57' W 005°08'4221.4
2015-Jul-26 23:33N 47°16' W 004°53'2922.0
2015-Jul-26 22:15N 46°48' W 004°45'17912.2
2015-Jul-26 07:30N 43°53' W 003°52'2722.6
2015-Jul-26 06:19N 44°19' W 004°01'1722.5
2015-Jul-26 05:33N 44°35' W 004°06'20822.2
2015-Jul-25 20:10N 47°59' W 005°09'1320.8
2015-Jul-25 19:33N 48°12' W 005°09'1818.2
2015-Jul-25 18:33N 48°29' W 004°59'15621.0
2015-Jul-25 11:08N 50°13' W 002°01'3521.7
2015-Jul-25 09:31N 50°32' W 001°14'1616.6
2015-Jul-25 08:33N 50°46' W 001°05'2 2.3
2015-Jul-25 07:33N 50°49' W 001°06'0 0.0
2015-Jul-25 06:33N 50°49' W 001°06'0 0.0
2015-Jul-25 05:33N 50°49' W 001°06'0 0.0
2015-Jul-25 04:33N 50°49' W 001°06'4 4.4
2015-Jul-25 03:33N 50°44' W 001°05'1916.7
2015-Jul-25 02:26N 50°29' W 000°47'4013.8
2015-Jul-24 23:31N 49°54' W 000°18'1313.3
2015-Jul-24 22:34N 49°42' W 000°12'2 1.5
2015-Jul-24 21:34N 49°40' W 000°10'1111.0
2015-Jul-24 20:34N 49°32' E 000°00'5 4.9
2015-Jul-24 19:33N 49°29' E 000°07'0 0.0
2015-Jul-24 18:33N 49°29' E 000°07'0 0.0
2015-Jul-24 17:33N 49°29' E 000°07'0 0.0
2015-Jul-24 16:33N 49°29' E 000°07'0 0.0
2015-Jul-24 15:33N 49°29' E 000°07'0 0.0
2015-Jul-24 14:33N 49°29' E 000°07'10 9.8
2015-Jul-24 13:34N 49°36' W 000°04'2221.5
2015-Jul-24 12:33N 49°55' W 000°21'4321.7
2015-Jul-24 10:33N 50°34' W 000°51'1717.4
2015-Jul-24 09:33N 50°48' W 001°07'1 1.0
2015-Jul-24 08:33N 50°49' W 001°06'0 0.0
2015-Jul-24 07:33N 50°49' W 001°06'0 0.0
2015-Jul-24 06:33N 50°49' W 001°06'0 0.0
2015-Jul-24 05:33N 50°49' W 001°06'6 5.8
2015-Jul-24 04:33N 50°43' W 001°02'1514.9
2015-Jul-24 03:33N 50°31' W 000°49'3413.8
2015-Jul-24 01:08N 50°01' W 000°24'813.6
2015-Jul-24 00:33N 49°54' W 000°19'1111.0
2015-Jul-23 23:33N 49°44' W 000°12'0 0.4
2015-Jul-23 22:33N 49°44' W 000°12'1313.0
2015-Jul-23 21:33N 49°33' W 000°00'6 6.2
2015-Jul-23 20:33N 49°29' E 000°07'0 0.0
2015-Jul-23 19:33N 49°29' E 000°07'0 0.0
2015-Jul-23 18:33N 49°29' E 000°07'0 0.0
2015-Jul-23 17:33N 49°29' E 000°07'0 0.0
2015-Jul-23 16:33N 49°29' E 000°07'0 0.0
2015-Jul-23 15:33N 49°29' E 000°07'0 0.0
2015-Jul-23 14:33N 49°29' E 000°07'0 0.0
2015-Jul-23 13:33N 49°29' E 000°07'0 0.0
2015-Jul-23 12:33N 49°29' E 000°07'0 0.0
2015-Jul-23 11:33N 49°29' E 000°07'0 0.0
2015-Jul-23 10:33N 49°29' E 000°07'0 0.0
2015-Jul-23 09:33N 49°29' E 000°07'0 0.0
2015-Jul-23 08:33N 49°29' E 000°07'0 0.0
2015-Jul-23 07:33N 49°29' E 000°07'0 0.0
2015-Jul-23 06:33N 49°29' E 000°07'3 2.8
2015-Jul-23 05:34N 49°30' E 000°02'1414.4
2015-Jul-23 04:33N 49°42' W 000°09'5613.4
2015-Jul-23 00:22N 50°32' W 000°49'1215.0
2015-Jul-22 23:33N 50°42' W 000°59'8 7.7
2015-Jul-22 22:33N 50°49' W 001°06'0 0.0
2015-Jul-22 21:33N 50°49' W 001°06'0 0.0
2015-Jul-22 20:33N 50°49' W 001°06'1211.5
2015-Jul-22 19:34N 50°40' W 000°54'5122.3
2015-Jul-22 17:16N 49°54' W 000°18'1623.0
2015-Jul-22 16:34N 49°40' W 000°06'1413.5
2015-Jul-22 15:33N 49°29' E 000°07'0 0.0
2015-Jul-22 14:33N 49°29' E 000°07'0 0.0
2015-Jul-22 13:33N 49°29' E 000°07'0 0.0
2015-Jul-22 12:33N 49°29' E 000°07'0 0.0
2015-Jul-22 11:33N 49°29' E 000°07'0 0.0
2015-Jul-22 10:33N 49°29' E 000°07'0 0.0
2015-Jul-22 09:33N 49°29' E 000°07'0 0.0
2015-Jul-22 08:33N 49°29' E 000°07'0 0.0
2015-Jul-22 07:33N 49°29' E 000°07'0 0.0
2015-Jul-22 06:33N 49°29' E 000°07'2 1.9
2015-Jul-22 05:33N 49°29' E 000°04'1514.9
2015-Jul-22 04:33N 49°42' W 000°09'1312.8
2015-Jul-22 03:32N 49°53' W 000°18'4514.2
2015-Jul-22 00:23N 50°33' W 000°50'1113.8
2015-Jul-21 23:33N 50°43' W 000°60'  

Dump ship's entire track history